Time;durP1;ratioP1;P1;durP2;ratioP2;P2;SDS_P1;SDS_P2;PMS_P1;PMS_P2;Temp;Humidity;BMP_temperature;BMP_pressure;BME280_temperature;BME280_humidity;BME280_pressure;Samples;Min_cycle;Max_cycle;Signal;HPM_P1;HPM_P2
2023/06/16 00:01:08;;;;;;;28.08;7.97;;;;;;;29.88;24.13;99179.84;5082281;28;20044;-64
2023/06/16 00:03:34;;;;;;;19.85;7.53;;;;;;;29.78;24.06;99172.59;5091724;28;20055;-64
2023/06/16 00:06:12;;;;;;;21.30;8.20;;;;;;;29.92;24.26;99165.28;5068276;28;20063;-64
2023/06/16 00:08:44;;;;;;;21.38;9.05;;;;;;;29.85;24.32;99173.03;5073260;28;20087;-64
2023/06/16 00:11:12;;;;;;;28.38;7.85;;;;;;;29.77;24.50;99170.94;5072600;28;20087;-64
2023/06/16 00:13:37;;;;;;;22.05;8.07;;;;;;;29.58;24.58;99162.66;5071419;28;20047;-64
2023/06/16 00:16:03;;;;;;;20.27;7.90;;;;;;;29.54;24.58;99156.16;5071698;28;20052;-64
2023/06/16 00:18:29;;;;;;;19.98;7.82;;;;;;;29.66;24.66;99157.69;5073028;28;20123;-63
2023/06/16 00:20:57;;;;;;;26.13;8.05;;;;;;;29.94;24.48;99173.22;5072694;28;20040;-64
2023/06/16 00:23:23;;;;;;;18.67;8.02;;;;;;;29.87;24.39;99172.75;5071822;28;20075;-65
2023/06/16 00:25:50;;;;;;;18.90;7.55;;;;;;;29.91;24.53;99173.81;5055170;28;20126;-63
2023/06/16 00:28:15;;;;;;;22.67;7.70;;;;;;;29.78;24.45;99178.06;5072896;28;20040;-64
2023/06/16 00:30:41;;;;;;;19.20;7.22;;;;;;;29.82;24.44;99167.31;5055549;28;20040;-64
2023/06/16 00:33:07;;;;;;;16.38;7.10;;;;;;;29.82;24.61;99172.81;5071942;28;20037;-65
2023/06/16 00:35:33;;;;;;;20.60;7.75;;;;;;;29.70;24.54;99158.72;5072688;28;20048;-66
2023/06/16 00:37:58;;;;;;;18.42;8.30;;;;;;;29.77;24.92;99170.16;5071630;28;20105;-64
2023/06/16 00:40:24;;;;;;;21.23;7.47;;;;;;;29.87;24.59;99184.53;5073242;28;20388;-64
2023/06/16 00:42:50;;;;;;;20.38;7.78;;;;;;;29.91;24.21;99154.63;5073024;28;20047;-64
2023/06/16 00:45:16;;;;;;;23.77;7.65;;;;;;;30.01;24.22;99165.44;5071464;28;20048;-64
2023/06/16 00:47:42;;;;;;;22.00;7.90;;;;;;;30.03;24.42;99171.44;5054525;28;20048;-64
2023/06/16 00:50:08;;;;;;;21.05;7.40;;;;;;;29.99;24.46;99175.84;5071683;28;20043;-64
2023/06/16 00:52:36;;;;;;;20.42;7.63;;;;;;;29.80;25.10;99170.34;5071336;28;20044;-64
2023/06/16 00:55:02;;;;;;;26.02;7.30;;;;;;;29.71;24.97;99165.84;5053971;28;20070;-64
2023/06/16 00:57:29;;;;;;;23.25;7.13;;;;;;;29.68;25.31;99169.19;5038283;28;20051;-64
2023/06/16 00:59:55;;;;;;;25.33;8.25;;;;;;;29.75;25.09;99162.22;5071284;28;20091;-64
2023/06/16 01:02:21;;;;;;;26.30;7.75;;;;;;;29.74;24.91;99159.78;5052925;28;20080;-64
2023/06/16 01:04:49;;;;;;;22.98;7.93;;;;;;;29.58;24.96;99159.94;5070912;28;20056;-64
2023/06/16 01:07:20;;;;;;;20.58;8.15;;;;;;;30.10;25.05;99174.59;5054961;28;20109;-65
2023/06/16 01:10:03;;;;;;;26.10;7.97;;;;;;;30.10;24.71;99164.47;5071160;28;20076;-65
2023/06/16 01:13:00;;;;;;;24.20;7.72;;;;;;;30.25;24.80;99174.41;5072114;28;20040;-64
2023/06/16 01:15:29;;;;;;;18.80;7.30;;;;;;;30.15;24.90;99182.75;5055681;28;20046;-64
2023/06/16 01:18:00;;;;;;;18.08;8.27;;;;;;;30.12;24.90;99162.25;5055056;28;20129;-66
2023/06/16 01:20:29;;;;;;;23.00;8.02;;;;;;;30.19;25.08;99183.78;5071781;28;20044;-63
2023/06/16 01:23:06;;;;;;;23.13;8.07;;;;;;;30.21;24.97;99176.13;5070620;28;20071;-63
2023/06/16 01:25:38;;;;;;;31.55;9.23;;;;;;;30.18;25.05;99174.78;5054482;28;20098;-64
2023/06/16 01:28:05;;;;;;;23.45;7.65;;;;;;;29.93;25.09;99175.13;5038264;28;20056;-64
2023/06/16 01:30:32;;;;;;;22.75;7.47;;;;;;;29.92;24.99;99157.06;5070679;28;20044;-64
2023/06/16 01:32:59;;;;;;;19.60;8.48;;;;;;;30.02;24.97;99172.53;5054352;28;20555;-65
2023/06/16 01:35:27;;;;;;;22.00;8.02;;;;;;;29.99;24.90;99171.19;5054656;28;20045;-64
2023/06/16 01:37:54;;;;;;;22.65;8.13;;;;;;;29.94;24.97;99174.00;5054034;28;20048;-64
2023/06/16 01:40:21;;;;;;;22.55;8.25;;;;;;;29.87;25.14;99161.78;5054272;28;20158;-63
2023/06/16 01:42:48;;;;;;;19.27;8.07;;;;;;;30.00;24.83;99175.56;5053707;28;20045;-65
2023/06/16 01:45:15;;;;;;;20.45;7.68;;;;;;;30.08;24.55;99174.06;5071253;28;20152;-64
2023/06/16 01:47:44;;;;;;;23.00;7.43;;;;;;;30.06;24.55;99168.09;5054390;28;20045;-64
2023/06/16 01:50:12;;;;;;;18.60;7.57;;;;;;;30.04;24.79;99175.78;5051847;28;20036;-65
2023/06/16 01:52:38;;;;;;;24.23;7.70;;;;;;;29.99;25.33;99171.19;5090563;28;20138;-65
2023/06/16 01:55:05;;;;;;;18.73;7.18;;;;;;;30.04;25.01;99167.56;5090750;28;20066;-65
2023/06/16 01:57:30;;;;;;;15.00;7.32;;;;;;;29.93;24.97;99149.66;5073989;28;20039;-65
2023/06/16 02:00:08;;;;;;;15.82;6.82;;;;;;;30.28;24.99;99174.63;5073429;28;20121;-65
2023/06/16 02:02:45;;;;;;;25.40;8.07;;;;;;;30.22;24.62;99178.56;5090585;28;20426;-66
2023/06/16 02:05:12;;;;;;;18.40;8.45;;;;;;;30.15;25.09;99175.38;5090860;28;20048;-65
2023/06/16 02:07:41;;;;;;;20.17;8.05;;;;;;;30.22;25.12;99175.00;5041011;28;20040;-65
2023/06/16 02:10:11;;;;;;;23.80;7.93;;;;;;;30.19;25.18;99148.16;5091356;28;20070;-67
2023/06/16 02:12:38;;;;;;;22.58;8.23;;;;;;;30.16;25.16;99166.03;5057459;28;20945;-65
2023/06/16 02:15:05;;;;;;;20.95;8.48;;;;;;;30.23;25.14;99162.94;5090934;28;20048;-66
2023/06/16 02:17:32;;;;;;;22.90;7.75;;;;;;;30.18;25.07;99160.25;5092006;28;20036;-66
2023/06/16 02:19:58;;;;;;;26.33;8.35;;;;;;;29.92;25.25;99165.28;5075435;28;20048;-66
2023/06/16 02:22:24;;;;;;;20.92;8.32;;;;;;;30.09;25.01;99156.56;5092735;28;20147;-66
2023/06/16 02:24:50;;;;;;;19.08;8.55;;;;;;;30.02;25.32;99162.38;5057224;28;20044;-66
2023/06/16 02:27:18;;;;;;;26.13;8.38;;;;;;;29.99;25.65;99159.41;5090548;28;20040;-71
2023/06/16 02:29:44;;;;;;;19.52;8.02;;;;;;;30.03;25.71;99164.00;5090890;28;20044;-66
2023/06/16 02:32:10;;;;;;;21.08;8.55;;;;;;;30.08;25.28;99163.13;5090408;28;20576;-66
2023/06/16 02:34:38;;;;;;;21.92;8.60;;;;;;;30.08;25.39;99160.38;5090453;28;20052;-66
2023/06/16 02:37:04;;;;;;;19.45;7.70;;;;;;;30.11;25.33;99157.88;5090378;28;20105;-67
2023/06/16 02:39:30;;;;;;;22.85;8.55;;;;;;;30.33;25.22;99138.13;5093661;28;20040;-66
2023/06/16 02:41:56;;;;;;;17.98;8.15;;;;;;;30.50;25.22;99147.44;5094244;28;20055;-66
2023/06/16 02:44:22;;;;;;;22.77;8.35;;;;;;;30.55;25.36;99158.28;5095185;28;20040;-66
2023/06/16 02:46:48;;;;;;;23.67;8.32;;;;;;;30.63;24.84;99156.81;5094374;28;20044;-66
2023/06/16 02:49:16;;;;;;;23.25;8.20;;;;;;;30.63;25.15;99140.38;5077543;28;20051;-66
2023/06/16 02:51:42;;;;;;;28.20;9.23;;;;;;;30.67;25.13;99153.19;5094032;28;20068;-66
2023/06/16 02:54:10;;;;;;;22.77;8.23;;;;;;;30.75;25.21;99151.69;5077277;28;20534;-66
2023/06/16 02:56:35;;;;;;;17.35;7.88;;;;;;;30.77;24.90;99163.16;5076940;28;20132;-66
2023/06/16 02:59:01;;;;;;;24.85;8.02;;;;;;;30.71;24.58;99139.66;5077091;28;20086;-66
2023/06/16 03:01:30;;;;;;;28.80;7.95;;;;;;;30.75;24.88;99146.22;5094332;28;20063;-66
2023/06/16 03:04:25;;;;;;;22.00;7.35;;;;;;;30.90;24.68;99155.00;5073229;28;20102;-66
2023/06/16 03:07:12;;;;;;;23.58;8.70;;;;;;;30.93;24.63;99157.13;5072192;28;20044;-66
2023/06/16 03:09:43;;;;;;;24.77;7.97;;;;;;;31.15;24.33;99164.69;5057047;28;20075;-65
2023/06/16 03:12:11;;;;;;;22.42;8.40;;;;;;;30.76;24.80;99159.63;5057819;28;20041;-65
2023/06/16 03:14:44;;;;;;;25.92;8.35;;;;;;;30.86;24.46;99156.69;5070950;28;20460;-65
2023/06/16 03:17:13;;;;;;;26.97;8.27;;;;;;;30.85;24.89;99151.50;5078937;28;20060;-65
2023/06/16 03:19:40;;;;;;;23.30;8.18;;;;;;;30.87;24.71;99144.63;5076819;28;20274;-65
2023/06/16 03:22:07;;;;;;;20.15;7.00;;;;;;;30.92;24.61;99152.75;5076372;28;20135;-65
2023/06/16 03:24:41;;;;;;;26.70;8.30;;;;;;;31.01;24.67;99152.88;5077413;28;20036;-66
2023/06/16 03:27:08;;;;;;;23.42;7.50;;;;;;;31.09;24.41;99158.47;5076564;28;20043;-65
2023/06/16 03:29:53;;;;;;;27.40;7.75;;;;;;;31.15;24.48;99150.97;5093132;28;20195;-70
2023/06/16 03:32:19;;;;;;;29.42;8.45;;;;;;;31.21;24.49;99165.38;5075811;28;20040;-65
2023/06/16 03:34:46;;;;;;;26.40;8.10;;;;;;;31.28;24.31;99161.13;5092969;28;20066;-65
2023/06/16 03:37:12;;;;;;;18.23;8.30;;;;;;;31.35;23.80;99161.59;5075918;28;20094;-66
2023/06/16 03:39:39;;;;;;;27.23;8.50;;;;;;;31.47;23.82;99167.38;5090120;28;20040;-66
2023/06/16 03:42:06;;;;;;;28.58;7.85;;;;;;;31.55;23.76;99155.69;5075752;28;20058;-65
2023/06/16 03:44:32;;;;;;;23.85;7.80;;;;;;;31.52;23.53;99148.06;5094050;28;20036;-65
2023/06/16 03:46:58;;;;;;;20.45;8.45;;;;;;;31.99;23.04;99155.84;5059467;28;20066;-65
2023/06/16 03:49:24;;;;;;;18.17;7.55;;;;;;;31.82;23.04;99154.81;5092570;28;20101;-65
2023/06/16 03:51:50;;;;;;;24.92;7.22;;;;;;;31.77;23.36;99163.19;5093244;28;20077;-64
2023/06/16 03:54:17;;;;;;;17.67;7.65;;;;;;;31.67;23.13;99146.91;5075842;28;20044;-65
2023/06/16 03:56:43;;;;;;;20.00;7.28;;;;;;;31.78;23.78;99156.56;5081479;28;20150;-65
2023/06/16 03:59:09;;;;;;;17.90;7.63;;;;;;;31.82;24.24;99152.06;5084019;28;20054;-65
2023/06/16 04:01:38;;;;;;;22.17;8.23;;;;;;;32.02;24.45;99154.41;5081568;28;20049;-65
2023/06/16 04:04:05;;;;;;;;;;;;;;;32.44;24.08;99157.53;5065475;28;20127;-66
2023/06/16 04:06:34;;;;;;;25.10;9.02;;;;;;;32.13;25.44;99155.78;5082919;28;20327;-66
2023/06/16 04:09:02;;;;;;;26.35;8.35;;;;;;;32.25;25.52;99150.56;5081539;28;20032;-66
2023/06/16 04:11:33;;;;;;;20.92;8.82;;;;;;;32.37;25.49;99148.09;5064166;28;20040;-65
2023/06/16 04:13:59;;;;;;;23.27;8.88;;;;;;;32.07;26.94;99149.63;5082216;28;20383;-68
2023/06/16 04:16:25;;;;;;;32.90;11.48;;;;;;;32.23;26.54;99156.38;5065494;28;20102;-67
2023/06/16 04:18:54;;;;;;;20.08;9.85;;;;;;;32.60;26.81;99145.03;5064487;28;20032;-70
2023/06/16 04:21:21;;;;;;;33.10;9.18;;;;;;;32.89;25.96;99152.84;5081932;28;20044;-65
2023/06/16 04:23:47;;;;;;;21.48;8.40;;;;;;;33.25;25.73;99148.00;5065607;28;20123;-65
2023/06/16 04:26:13;;;;;;;21.92;9.13;;;;;;;33.54;25.02;99153.00;5081565;28;20606;-66
2023/06/16 04:28:43;;;;;;;21.52;9.23;;;;;;;33.64;23.82;99160.97;5082488;28;20141;-65
2023/06/16 04:31:12;;;;;;;22.50;7.82;;;;;;;33.98;23.38;99158.31;5065807;28;20042;-68
2023/06/16 04:33:41;;;;;;;19.38;8.60;;;;;;;34.15;23.74;99159.13;5080279;28;20040;-66
2023/06/16 04:36:09;;;;;;;17.50;8.02;;;;;;;34.14;23.84;99156.69;5080555;28;20036;-68
2023/06/16 04:38:36;;;;;;;23.05;7.80;;;;;;;34.22;23.69;99158.66;5072173;28;20059;-67
2023/06/16 04:41:03;;;;;;;21.80;8.13;;;;;;;34.33;23.51;99150.88;5078500;28;20035;-68
2023/06/16 04:43:29;;;;;;;24.15;6.50;;;;;;;34.77;20.63;99161.53;5061657;28;20105;-68
2023/06/16 04:45:58;;;;;;;14.23;6.22;;;;;;;34.81;19.87;99157.84;5089845;28;20493;-69
2023/06/16 04:48:25;;;;;;;16.30;7.15;;;;;;;34.99;19.52;99164.94;5073973;28;20139;-66
2023/06/16 04:50:53;;;;;;;18.10;6.18;;;;;;;35.03;19.16;99165.13;5088854;28;20439;-67
2023/06/16 04:53:20;;;;;;;11.50;5.97;;;;;;;35.10;19.46;99168.97;5082010;28;20050;-71
2023/06/16 04:55:46;;;;;;;16.60;6.70;;;;;;;35.11;19.34;99172.53;5089748;28;20047;-69
2023/06/16 04:58:15;;;;;;;14.73;6.43;;;;;;;34.95;19.24;99163.97;5057343;28;20036;-68
2023/06/16 05:00:42;;;;;;;13.52;6.35;;;;;;;35.02;19.12;99175.34;5055637;28;20044;-69
2023/06/16 05:03:08;;;;;;;21.00;6.50;;;;;;;34.99;19.29;99170.47;5088964;28;20063;-68
2023/06/16 05:05:36;;;;;;;17.60;6.53;;;;;;;34.94;19.24;99156.84;5069587;28;20137;-70
2023/06/16 05:08:04;;;;;;;11.25;6.00;;;;;;;35.11;19.38;99172.53;5087706;28;20060;-70
2023/06/16 05:10:31;;;;;;;23.10;6.57;;;;;;;35.03;19.41;99168.66;5072435;28;20044;-68
2023/06/16 05:12:58;;;;;;;14.48;6.38;;;;;;;35.20;19.45;99168.59;5090189;28;20043;-70
2023/06/16 05:15:24;;;;;;;13.65;6.10;;;;;;;35.25;18.96;99165.66;5058051;28;20797;-67
2023/06/16 05:17:51;;;;;;;18.25;6.65;;;;;;;35.34;19.47;99162.84;5090693;28;20086;-67
2023/06/16 05:20:16;;;;;;;19.77;6.75;;;;;;;35.38;19.50;99161.91;5091019;28;20064;-68
2023/06/16 05:22:44;;;;;;;20.40;6.40;;;;;;;35.33;18.62;99161.25;5090674;28;20055;-69
2023/06/16 05:25:10;;;;;;;18.02;7.30;;;;;;;35.47;18.73;99170.16;5090389;28;20044;-67
2023/06/16 05:27:40;;;;;;;19.87;6.63;;;;;;;35.50;18.37;99163.97;5090951;28;20055;-67
2023/06/16 05:30:07;;;;;;;17.73;7.10;;;;;;;35.66;18.13;99170.53;5073220;28;20040;-68
2023/06/16 05:32:33;;;;;;;24.65;7.82;;;;;;;35.65;17.77;99166.16;5091148;28;20048;-68
2023/06/16 05:35:01;;;;;;;31.52;8.48;;;;;;;35.62;17.93;99161.31;5090125;28;20479;-68
2023/06/16 05:37:29;;;;;;;26.42;9.40;;;;;;;35.78;17.72;99168.66;5057102;28;20046;-68
2023/06/16 05:39:55;;;;;;;15.15;7.47;;;;;;;35.68;17.40;99168.25;5090143;28;20482;-69
2023/06/16 05:42:21;;;;;;;16.55;6.50;;;;;;;35.75;16.97;99171.31;5090237;28;20050;-68
2023/06/16 05:44:48;;;;;;;20.48;7.18;;;;;;;35.81;17.53;99164.44;5090153;28;20039;-70
2023/06/16 05:47:15;;;;;;;11.35;5.18;;;;;;;35.92;17.00;99165.69;5055786;28;20592;-67
2023/06/16 05:49:41;;;;;;;15.38;5.80;;;;;;;36.00;16.57;99161.28;5073575;28;20138;-70
2023/06/16 05:52:07;;;;;;;11.20;5.45;;;;;;;36.07;16.67;99159.59;5073311;28;20078;-67
2023/06/16 05:54:36;;;;;;;19.52;5.80;;;;;;;36.22;16.14;99158.16;5056583;28;20051;-68
2023/06/16 05:57:06;;;;;;;8.73;5.07;;;;;;;36.33;16.05;99157.44;5090050;28;20036;-69
2023/06/16 05:59:34;;;;;;;11.43;5.70;;;;;;;36.48;15.85;99154.06;5089928;28;20048;-68
2023/06/16 06:02:00;;;;;;;18.08;5.55;;;;;;;36.47;16.12;99141.38;5073305;28;20142;-69
2023/06/16 06:04:31;;;;;;;13.90;7.07;;;;;;;36.82;15.78;99158.47;5090566;28;20074;-69
2023/06/16 06:07:01;;;;;;;14.80;5.53;;;;;;;36.77;15.79;99158.69;5090937;28;20162;-69
2023/06/16 06:09:28;;;;;;;13.90;6.40;;;;;;;36.98;16.07;99154.69;5057244;28;20044;-71
2023/06/16 06:11:54;;;;;;;16.73;7.10;;;;;;;37.02;15.74;99165.91;5089626;28;20425;-67
2023/06/16 06:14:20;;;;;;;11.40;5.82;;;;;;;37.03;15.94;99161.97;5093370;28;20040;-67
2023/06/16 06:16:46;;;;;;;13.48;6.65;;;;;;;37.17;16.09;99145.84;5094033;28;20126;-67
2023/06/16 06:19:12;;;;;;;21.52;6.60;;;;;;;37.35;15.63;99152.03;5094003;28;20496;-68
2023/06/16 06:21:39;;;;;;;14.73;6.00;;;;;;;37.48;15.60;99151.69;5077261;28;20426;-67
2023/06/16 06:24:06;;;;;;;9.57;5.03;;;;;;;37.77;15.20;99159.78;5076903;28;20382;-72
2023/06/16 06:26:32;;;;;;;12.38;5.97;;;;;;;37.90;15.20;99155.84;5076950;28;20036;-68
2023/06/16 06:28:59;;;;;;;18.05;6.18;;;;;;;38.22;15.01;99154.06;5094694;28;20044;-67
2023/06/16 06:31:26;;;;;;;14.00;5.75;;;;;;;38.42;14.93;99162.22;5077199;28;20044;-69
2023/06/16 06:33:52;;;;;;;12.55;5.80;;;;;;;38.60;14.64;99157.16;5095938;28;20048;-69
2023/06/16 06:36:26;;;;;;;10.85;5.32;;;;;;;38.99;14.39;99153.53;5077332;28;20040;-67
2023/06/16 06:38:56;;;;;;;15.90;5.75;;;;;;;39.00;14.47;99151.56;5093864;28;20510;-67
2023/06/16 06:41:24;;;;;;;15.20;4.90;;;;;;;39.18;13.76;99158.38;5094971;28;20490;-67
2023/06/16 06:43:54;;;;;;;13.15;5.13;;;;;;;39.08;14.02;99143.06;5077206;28;20055;-68
2023/06/16 06:46:40;;;;;;;12.50;5.57;;;;;;;39.21;13.47;99150.13;5091856;28;20483;-69
2023/06/16 06:49:06;;;;;;;20.70;6.70;;;;;;;39.23;13.43;99150.56;5057040;28;20091;-70
2023/06/16 06:51:33;;;;;;;13.68;6.28;;;;;;;39.18;13.39;99153.63;5074802;28;20040;-69
2023/06/16 06:53:58;;;;;;;12.85;4.63;;;;;;;39.01;13.44;99150.41;5091731;28;20104;-68
2023/06/16 06:56:25;;;;;;;20.25;6.45;;;;;;;38.88;13.27;99143.25;5094710;28;20418;-67
2023/06/16 06:58:51;;;;;;;16.08;5.63;;;;;;;38.86;13.09;99149.16;5096285;28;20048;-68
2023/06/16 07:01:17;;;;;;;14.07;6.80;;;;;;;38.89;13.78;99134.56;5094950;28;20089;-67
2023/06/16 07:03:43;;;;;;;15.55;5.25;;;;;;;38.95;14.00;99151.78;5094880;28;20051;-68
2023/06/16 07:06:10;;;;;;;16.90;5.13;;;;;;;39.18;13.93;99144.50;5093209;28;20079;-67
2023/06/16 07:08:35;;;;;;;15.20;6.07;;;;;;;39.34;13.49;99134.97;5094470;28;20040;-67
2023/06/16 07:11:01;;;;;;;15.68;4.70;;;;;;;39.52;13.30;99136.25;5094407;28;20052;-70
2023/06/16 07:13:27;;;;;;;13.05;5.95;;;;;;;39.67;13.22;99145.75;5092254;28;20036;-68
2023/06/16 07:15:53;;;;;;;12.50;4.72;;;;;;;39.72;12.67;99154.59;5076537;28;20101;-67
2023/06/16 07:18:19;;;;;;;14.32;4.43;;;;;;;39.74;12.61;99143.13;5092976;28;20048;-67
2023/06/16 07:20:45;;;;;;;17.70;5.25;;;;;;;39.70;12.34;99139.47;5094049;28;20044;-67
2023/06/16 07:23:10;;;;;;;10.68;4.80;;;;;;;39.73;12.82;99142.34;5093772;28;20059;-68
2023/06/16 07:25:36;;;;;;;11.30;4.28;;;;;;;39.71;12.56;99138.28;5093648;28;20362;-70
2023/06/16 07:28:06;;;;;;;13.13;5.00;;;;;;;39.78;12.70;99139.25;5076183;28;20135;-69
2023/06/16 07:30:32;;;;;;;7.03;3.78;;;;;;;39.48;12.67;99140.09;5076474;28;20048;-68
2023/06/16 07:32:58;;;;;;;7.93;4.40;;;;;;;39.29;12.69;99137.25;5076113;28;20040;-68
2023/06/16 07:35:24;;;;;;;10.57;4.60;;;;;;;39.15;12.95;99140.44;5094118;28;20043;-69
2023/06/16 07:37:50;;;;;;;15.70;4.57;;;;;;;39.09;12.91;99143.88;5093681;28;20085;-70
2023/06/16 07:40:16;;;;;;;12.40;4.35;;;;;;;38.94;13.07;99147.38;5092972;28;20040;-68
2023/06/16 07:42:45;;;;;;;14.25;4.60;;;;;;;38.86;12.87;99148.38;5092284;28;20078;-71
2023/06/16 07:45:12;;;;;;;13.77;3.90;;;;;;;38.79;12.85;99140.66;5091589;28;20036;-69
2023/06/16 07:47:42;;;;;;;7.10;3.85;;;;;;;38.68;12.86;99140.38;5074693;28;20043;-67
2023/06/16 07:50:11;;;;;;;8.75;3.75;;;;;;;38.66;13.04;99145.47;5093477;28;20059;-69
2023/06/16 07:52:38;;;;;;;10.30;4.38;;;;;;;38.65;13.29;99135.53;5093676;28;20039;-68
2023/06/16 07:55:04;;;;;;;6.85;4.00;;;;;;;38.62;12.95;99130.69;5077245;28;20433;-69
2023/06/16 07:57:31;;;;;;;9.95;4.22;;;;;;;38.68;12.81;99134.00;5093059;28;20096;-69
2023/06/16 07:59:58;;;;;;;9.00;3.92;;;;;;;38.77;12.75;99136.63;5093589;28;20059;-68
2023/06/16 08:02:23;;;;;;;5.25;3.70;;;;;;;38.90;12.34;99138.97;5092663;28;20059;-69
2023/06/16 08:04:49;;;;;;;11.30;4.38;;;;;;;39.08;12.64;99125.56;5093693;28;20111;-69
2023/06/16 08:07:15;;;;;;;6.20;3.58;;;;;;;39.21;12.07;99135.44;5091688;28;20049;-68
2023/06/16 08:09:41;;;;;;;10.68;4.18;;;;;;;39.35;12.46;99138.59;5092735;28;20044;-69
2023/06/16 08:12:09;;;;;;;10.77;4.20;;;;;;;39.45;12.03;99121.38;5084789;28;20037;-69
2023/06/16 08:14:36;;;;;;;11.38;4.03;;;;;;;39.63;11.93;99130.94;5072484;28;20071;-68
2023/06/16 08:17:02;;;;;;;8.00;3.75;;;;;;;39.79;11.53;99134.50;5072438;28;20044;-70
2023/06/16 08:19:28;;;;;;;9.02;4.32;;;;;;;40.00;11.94;99130.25;5073543;28;20056;-68
2023/06/16 08:21:53;;;;;;;9.82;4.40;;;;;;;40.18;11.57;99131.44;5056653;28;20388;-67
2023/06/16 08:24:19;;;;;;;5.50;3.90;;;;;;;40.24;11.08;99126.41;5072626;28;20044;-68
2023/06/16 08:26:45;;;;;;;7.25;3.70;;;;;;;40.38;11.28;99123.91;5055167;28;20064;-68
2023/06/16 08:29:12;;;;;;;9.40;4.25;;;;;;;40.36;11.50;99120.72;5072093;28;20055;-68
2023/06/16 08:31:38;;;;;;;8.77;4.18;;;;;;;40.71;11.44;99121.44;5055004;28;20059;-68
2023/06/16 08:34:04;;;;;;;9.48;4.63;;;;;;;41.59;10.70;99123.81;5072133;28;20472;-69
2023/06/16 08:36:32;;;;;;;7.93;4.50;;;;;;;41.81;10.94;99129.72;5071311;28;20051;-70
2023/06/16 08:38:57;;;;;;;7.72;4.03;;;;;;;43.16;9.73;99131.81;5072106;28;20044;-69
2023/06/16 08:41:23;;;;;;;7.30;3.67;;;;;;;43.58;9.27;99126.59;5054767;28;20074;-69
2023/06/16 08:43:51;;;;;;;7.78;3.30;;;;;;;43.55;8.70;99126.56;5070811;28;20127;-70
2023/06/16 08:46:17;;;;;;;9.20;3.33;;;;;;;44.06;8.76;99128.13;5054791;28;20075;-69
2023/06/16 08:48:43;;;;;;;11.52;4.45;;;;;;;46.24;7.56;99133.22;5071651;28;20433;-69
2023/06/16 08:51:10;;;;;;;7.45;3.55;;;;;;;49.02;6.05;99138.75;5070719;28;20044;-69
2023/06/16 08:53:38;;;;;;;10.95;4.25;;;;;;;51.30;4.26;99136.22;5070709;28;20190;-69
2023/06/16 08:56:05;;;;;;;9.13;4.32;;;;;;;53.17;4.09;99121.13;5070406;28;20045;-70
2023/06/16 08:58:31;;;;;;;5.05;3.33;;;;;;;54.13;3.46;99119.38;5070859;28;20052;-70
2023/06/16 09:01:02;;;;;;;8.70;3.40;;;;;;;53.77;3.60;99110.56;5070663;28;20067;-71
2023/06/16 09:03:32;;;;;;;5.07;3.15;;;;;;;54.53;3.19;99123.16;5070126;28;20520;-68
2023/06/16 09:06:00;;;;;;;9.23;3.08;;;;;;;55.35;2.78;99121.44;5070671;28;20036;-70
2023/06/16 09:08:27;;;;;;;4.67;3.00;;;;;;;56.38;2.25;99121.34;5071187;28;20059;-71
2023/06/16 09:10:54;;;;;;;5.63;3.00;;;;;;;56.89;2.16;99118.47;5054114;28;20045;-71
2023/06/16 09:13:21;;;;;;;6.63;2.50;;;;;;;57.79;1.54;99111.44;5070995;28;20044;-71
2023/06/16 09:15:48;;;;;;;6.32;3.35;;;;;;;58.53;1.49;99108.97;5072020;28;20044;-71
2023/06/16 09:18:15;;;;;;;5.80;2.58;;;;;;;59.17;1.15;99093.84;5070960;28;20395;-71
2023/06/16 09:20:41;;;;;;;8.07;3.38;;;;;;;59.41;1.23;99100.97;5054006;28;20036;-71
2023/06/16 09:23:08;;;;;;;12.40;2.85;;;;;;;59.89;0.82;99095.59;5070956;28;20058;-71
2023/06/16 09:25:35;;;;;;;8.18;2.88;;;;;;;60.76;0.75;99100.63;5069981;28;20044;-70
2023/06/16 09:28:09;;;;;;;14.20;6.47;;;;;;;60.03;0.67;99088.94;5071041;28;20392;-74
2023/06/16 09:30:36;;;;;;;13.25;7.20;;;;;;;58.33;1.67;99079.47;5054241;28;20044;-71
2023/06/16 09:33:06;;;;;;;11.32;4.20;;;;;;;58.54;1.33;99093.41;5070497;28;20044;-71
2023/06/16 09:35:32;;;;;;;5.13;3.20;;;;;;;59.34;1.05;99080.56;5071019;28;20132;-71
2023/06/16 09:38:03;;;;;;;5.00;3.10;;;;;;;59.72;0.69;99072.44;5070735;28;20048;-71
2023/06/16 09:40:31;;;;;;;7.70;3.03;;;;;;;60.36;0.90;99087.19;5053341;28;20101;-70
2023/06/16 09:42:59;;;;;;;4.03;3.13;;;;;;;61.19;0.88;99078.44;5070882;28;20044;-69
2023/06/16 09:45:32;;;;;;;7.13;2.60;;;;;;;61.65;0.11;99073.19;5069788;28;20044;-74
2023/06/16 09:48:05;;;;;;;6.10;3.05;;;;;;;61.85;0.00;99081.63;5069953;28;20052;-69
2023/06/16 09:50:32;;;;;;;7.53;3.00;;;;;;;62.01;0.07;99074.31;5071017;28;20040;-69
2023/06/16 09:53:00;;;;;;;6.53;3.35;;;;;;;62.27;0.00;99077.75;5069698;28;20048;-72
2023/06/16 09:55:27;;;;;;;9.45;3.63;;;;;;;63.20;0.08;99071.91;5069838;28;20051;-71
2023/06/16 09:57:53;;;;;;;5.53;3.30;;;;;;;63.76;0.00;99060.13;5071039;28;20384;-69
2023/06/16 10:00:19;;;;;;;7.55;2.92;;;;;;;63.50;0.00;99053.97;5070511;28;20494;-70
2023/06/16 10:02:49;;;;;;;6.47;2.83;;;;;;;63.45;0.00;99044.03;5070842;28;20056;-70
2023/06/16 10:05:18;;;;;;;6.07;2.78;;;;;;;62.85;0.00;99054.44;5069950;28;20044;-69
2023/06/16 10:07:51;;;;;;;4.57;2.65;;;;;;;60.74;0.64;99042.91;5070522;28;20410;-70
2023/06/16 10:10:23;;;;;;;10.07;3.45;;;;;;;58.38;1.27;99042.34;5052589;28;20051;-69
2023/06/16 10:12:50;;;;;;;7.80;3.17;;;;;;;56.21;2.25;99029.59;5052249;28;20044;-69
2023/06/16 10:15:20;;;;;;;10.25;3.42;;;;;;;54.65;2.80;99019.84;5053036;28;20150;-72
2023/06/16 10:17:51;;;;;;;9.10;3.65;;;;;;;54.00;2.93;99009.84;5069626;28;20072;-69
2023/06/16 10:20:20;;;;;;;8.13;3.22;;;;;;;52.78;3.60;99021.50;5069787;28;20062;-69
2023/06/16 10:22:47;;;;;;;8.20;3.60;;;;;;;51.45;3.96;99024.25;5069753;28;20053;-70
2023/06/16 10:25:13;;;;;;;8.43;3.70;;;;;;;50.32;4.68;99012.06;5070564;28;20045;-69
2023/06/16 10:27:40;;;;;;;4.93;3.60;;;;;;;49.34;4.99;99001.97;5070778;28;20051;-69
2023/06/16 10:30:09;;;;;;;6.63;3.78;;;;;;;48.36;5.46;98981.84;5052936;28;20127;-71
2023/06/16 10:32:37;;;;;;;9.43;3.85;;;;;;;47.81;5.53;99001.84;5053100;28;20049;-69
2023/06/16 10:35:04;;;;;;;5.18;4.03;;;;;;;47.12;6.18;99002.16;5069854;28;20053;-68
2023/06/16 10:37:31;;;;;;;7.28;4.13;;;;;;;46.79;6.52;98985.97;5053328;28;20048;-69
2023/06/16 10:40:06;;;;;;;7.00;4.10;;;;;;;46.64;7.02;98990.09;5052838;28;20045;-69
2023/06/16 10:42:35;;;;;;;12.25;4.15;;;;;;;47.59;6.29;98995.66;5071304;28;20487;-68
2023/06/16 10:45:27;;;;;;;5.28;4.00;;;;;;;49.99;5.16;98995.44;5072076;28;20040;-71
2023/06/16 10:48:01;;;;;;;8.65;3.72;;;;;;;51.95;4.53;99003.78;5072026;28;20040;-68
2023/06/16 10:50:41;;;;;;;7.80;3.80;;;;;;;53.39;3.79;99001.94;5071127;28;20510;-69
2023/06/16 10:53:13;;;;;;;3.75;3.30;;;;;;;54.16;3.30;99004.69;5069660;28;20488;-70
2023/06/16 10:55:42;;;;;;;8.55;3.80;;;;;;;54.79;3.13;99004.22;5069241;28;20052;-69
2023/06/16 10:58:15;;;;;;;4.03;3.25;;;;;;;55.66;2.70;99010.19;5069173;28;20076;-69
2023/06/16 11:01:00;;;;;;;6.97;3.00;;;;;;;56.41;2.35;99000.53;5073002;28;20040;-70
2023/06/16 11:03:37;;;;;;;6.57;3.22;;;;;;;56.95;2.11;98990.94;5072544;28;20584;-71
2023/06/16 11:06:04;;;;;;;8.70;3.83;;;;;;;56.60;2.17;98987.78;5073687;28;20483;-70
2023/06/16 11:08:30;;;;;;;6.72;2.88;;;;;;;55.87;2.38;98984.38;5073803;28;20040;-69
2023/06/16 11:11:02;;;;;;;7.03;3.13;;;;;;;54.80;2.81;98986.69;5073680;28;20040;-69
2023/06/16 11:13:34;;;;;;;5.70;3.75;;;;;;;53.31;3.50;98972.22;5072816;28;20438;-69
2023/06/16 11:16:00;;;;;;;12.95;3.72;;;;;;;52.30;3.96;98973.56;5073531;28;20063;-69
2023/06/16 11:18:27;;;;;;;5.60;3.40;;;;;;;51.77;4.59;98972.34;5056168;28;20041;-71
2023/06/16 11:20:58;;;;;;;4.53;3.53;;;;;;;51.52;3.95;98963.75;5074080;28;20470;-68
2023/06/16 11:23:25;;;;;;;8.32;3.90;;;;;;;50.86;4.26;98972.81;5073619;28;20056;-69
2023/06/16 11:25:51;;;;;;;4.25;3.83;;;;;;;50.38;4.75;98965.09;5072361;28;20040;-69
2023/06/16 11:28:20;;;;;;;5.95;3.45;;;;;;;49.93;5.02;98964.06;5073464;28;20102;-69
2023/06/16 11:30:47;;;;;;;8.13;3.83;;;;;;;48.85;5.38;98961.31;5073256;28;20481;-69
2023/06/16 11:33:16;;;;;;;8.77;3.90;;;;;;;47.97;6.11;98959.03;5055369;28;20045;-69